Impacts METAR Board
IDs:

KCLT - Charlotte/Douglas In, NC, US

Updated at: 2200 UTC 21 May 2022
Potential Impact None Slight Moderate High
Time 21/10Z 21/11Z 21/12Z 21/13Z 21/14Z 21/15Z 21/16Z 21/17Z 21/18Z 21/19Z 21/20Z 21/21Z 21/22Z
Temp73 73 76 77 80 82 85 87 89 77 70 74 76
Dewpt67 67 68 68 68 69 68 68 69 69 67 69 66
Altim30.09 30.12 30.13 30.15 30.16 30.16 30.16 30.16 30.14 30.14 30.17 30.11 30.14
VIS10 9 10 10 10 10 10 10 10 5 5 10 10
CIG220 220 250 250 250 250 -- 250 180 250 70 250 250
CoverBKNBKNBKNBKNBKNBKNSCTBKNBKNBKNOVCBKNBKN
FltCatVFRVFRVFRVFRVFRVFRVFRVFRVFRMVFRMVFRVFRVFR
WX-------------------TSRATSRA----
WDir2101802102302202000200220140200170150
WSpd3 5 4 8 7 7 4 8 10 11 19 8 13
WGst-- -- -- -- -- -- -- -- -- -- 30 -- --
Raw hourly METARs
KCLT 210952Z 21003KT 10SM BKN220 23/19 A3009 RMK SLP180 T02280194
KCLT 211052Z 18005KT 9SM FEW120 BKN220 23/19 A3012 RMK SLP189 T02280194
KCLT 211152Z 21004KT 10SM FEW120 BKN250 24/20 A3013 RMK SLP192 T02440200 10250 20222 53003
KCLT 211252Z 23008KT 10SM SCT120 BKN250 25/20 A3015 RMK SLP200 T02500200
KCLT 211352Z 22007KT 10SM SCT110 BKN250 27/20 A3016 RMK SLP201 T02670200
KCLT 211452Z 20007KT 10SM FEW030 FEW110 SCT220 BKN250 28/21 A3016 RMK SLP202 T02780206 51016
KCLT 211552Z VRB04KT 10SM FEW030 FEW120 SCT210 SCT250 29/20 A3016 RMK SLP204 T02940200
KCLT 211652Z 20008KT 10SM FEW035 SCT130 SCT190 BKN250 31/20 A3016 RMK SLP204 T03060200
KCLT 211752Z 22010KT 10SM SCT040 SCT120 BKN180 BKN250 32/21 A3014 RMK SLP196 T03170206 10317 20244 58005
KCLT 211859Z 14011KT 5SM -TSRA SCT044CB SCT090 BKN250 25/21 A3014 RMK WSHFT 1839 FRQ LTGICCCCG NE-E AND SW TS NE-E AND SW MOV E CD DSNT S P0001 T02500206
KCLT 211952Z 20019G30KT 5SM TSRA FEW035CB BKN070 BKN170 OVC250 21/19 A3017 RMK PK WND 21030/1942 WSHFT 1839 SLP210 OCNL LTGICCCCG OHD-W TS OHD-W MOV NE TCU DSNT N P0001 T02110194
KCLT 212052Z 17008KT 10SM FEW075 SCT110 BKN250 23/21 A3011 RMK RAE41 TSE27 SLP186 P0026 60027 T02330206 58012 $
KCLT 212152Z 15013KT 10SM FEW130 BKN250 24/19 A3014 RMK SLP199 T02440189 $



Page loaded:  22:45 UTC  |   03:45 PM Pacific  |   04:45 PM Mountain  |   05:45 PM Central  |   06:45 PM Eastern

 

ADVISORIES

FORECASTS

FORECASTS

OBSERVATIONS

USER TOOLS

ABOUT US